createdAt,value
2023-05-15T00:00:53.034Z,3.70
2023-05-15T00:03:21.338Z,3.57
2023-05-15T00:05:49.456Z,4.05
2023-05-15T00:08:17.456Z,4.20
2023-05-15T00:10:59.770Z,4.20
2023-05-15T00:13:30.060Z,3.40
2023-05-15T00:15:58.461Z,3.70
2023-05-15T00:18:27.360Z,3.97
2023-05-15T00:20:55.894Z,3.77
2023-05-15T00:23:23.945Z,4.67
2023-05-15T00:25:52.099Z,4.07
2023-05-15T00:28:20.113Z,4.50
2023-05-15T00:30:49.376Z,4.10
2023-05-15T00:33:17.373Z,4.60
2023-05-15T00:35:46.199Z,4.50
2023-05-15T00:38:14.112Z,5.10
2023-05-15T00:40:43.879Z,4.70
2023-05-15T00:43:13.154Z,3.90
2023-05-15T00:45:44.592Z,4.87
2023-05-15T00:48:14.804Z,4.37
2023-05-15T00:50:43.736Z,4.73
2023-05-15T00:53:12.756Z,4.93
2023-05-15T00:55:41.798Z,5.07
2023-05-15T00:58:12.025Z,5.30
2023-05-15T01:00:40.570Z,4.70
2023-05-15T01:03:08.859Z,4.87
2023-05-15T01:05:38.768Z,5.03
2023-05-15T01:08:14.036Z,4.90
2023-05-15T01:10:43.991Z,5.80
2023-05-15T01:13:15.056Z,4.57
2023-05-15T01:15:43.026Z,5.07
2023-05-15T01:18:11.204Z,5.73
2023-05-15T01:20:58.311Z,5.10
2023-05-15T01:23:37.544Z,6.00
2023-05-15T01:26:59.219Z,4.63
2023-05-15T01:29:34.763Z,5.40
2023-05-15T01:32:05.423Z,5.27
2023-05-15T01:34:43.607Z,6.40
2023-05-15T01:37:12.845Z,5.37
2023-05-15T01:39:43.607Z,5.40
2023-05-15T01:42:14.593Z,5.00
2023-05-15T01:44:48.666Z,5.80
2023-05-15T01:47:22.207Z,5.93
2023-05-15T01:49:53.538Z,5.30
2023-05-15T01:52:26.273Z,5.60
2023-05-15T01:54:55.758Z,5.80
2023-05-15T01:57:26.777Z,6.70
2023-05-15T01:59:57.673Z,5.70
2023-05-15T02:02:26.056Z,5.67
2023-05-15T02:04:55.036Z,6.47
2023-05-15T02:07:23.303Z,5.40
2023-05-15T02:09:52.693Z,6.23
2023-05-15T02:12:22.045Z,5.03
2023-05-15T02:14:51.400Z,5.07
2023-05-15T02:17:22.784Z,5.60
2023-05-15T02:19:51.086Z,6.40
2023-05-15T02:22:19.139Z,6.80
2023-05-15T02:24:47.092Z,5.90
2023-05-15T02:27:21.039Z,7.27
2023-05-15T02:30:00.638Z,6.70
2023-05-15T02:32:36.054Z,6.80
2023-05-15T02:35:15.030Z,6.00
2023-05-15T02:37:47.415Z,6.10
2023-05-15T02:40:16.176Z,7.17
2023-05-15T02:42:47.314Z,6.70
2023-05-15T02:45:15.913Z,6.27
2023-05-15T02:47:45.707Z,7.10
2023-05-15T02:50:13.654Z,7.90
2023-05-15T02:52:41.733Z,7.83
2023-05-15T02:55:10.799Z,7.63
2023-05-15T02:57:38.971Z,6.10
2023-05-15T03:00:11.811Z,8.30
2023-05-15T03:02:39.933Z,6.50
2023-05-15T03:05:10.104Z,7.00
2023-05-15T03:07:38.014Z,7.50
2023-05-15T03:10:06.870Z,6.40
2023-05-15T03:12:34.851Z,6.63
2023-05-15T03:15:02.827Z,7.80
2023-05-15T03:17:30.799Z,6.10
2023-05-15T03:19:58.871Z,6.60
2023-05-15T03:22:28.140Z,7.67
2023-05-15T03:24:56.156Z,7.40
2023-05-15T03:27:24.113Z,6.10
2023-05-15T03:29:52.058Z,6.23
2023-05-15T03:32:20.083Z,6.30
2023-05-15T03:34:48.116Z,5.70
2023-05-15T03:37:16.067Z,6.20
2023-05-15T03:39:45.941Z,6.37
2023-05-15T03:42:13.922Z,7.70
2023-05-15T03:44:42.125Z,5.80
2023-05-15T03:47:10.089Z,6.40
2023-05-15T03:49:38.155Z,5.87
2023-05-15T03:52:06.664Z,6.40
2023-05-15T03:54:34.639Z,7.37
2023-05-15T03:57:04.805Z,6.80
2023-05-15T03:59:32.873Z,6.83
2023-05-15T04:02:04.440Z,6.60
2023-05-15T04:04:33.606Z,7.80
2023-05-15T04:07:01.707Z,5.93
2023-05-15T04:09:29.622Z,6.83
2023-05-15T04:11:57.631Z,6.40
2023-05-15T04:14:27.296Z,5.90
2023-05-15T04:16:55.437Z,7.40
2023-05-15T04:19:23.347Z,6.90
2023-05-15T04:21:51.341Z,7.57
2023-05-15T04:24:19.256Z,6.27
2023-05-15T04:26:47.282Z,6.63
2023-05-15T04:29:15.328Z,6.90
2023-05-15T04:31:44.669Z,7.20
2023-05-15T04:34:12.736Z,6.80
2023-05-15T04:36:42.870Z,6.77
2023-05-15T04:39:11.127Z,6.97
2023-05-15T04:41:39.176Z,13.60
2023-05-15T04:44:08.513Z,9.10
2023-05-15T04:46:37.445Z,8.33
2023-05-15T04:49:07.490Z,7.77
2023-05-15T04:51:35.443Z,7.27
2023-05-15T04:54:03.371Z,7.70
2023-05-15T04:56:31.403Z,6.47
2023-05-15T04:58:59.787Z,7.50
2023-05-15T05:01:27.890Z,7.90
2023-05-15T05:03:56.330Z,7.87
2023-05-15T05:06:25.858Z,7.50
2023-05-15T05:08:53.992Z,6.50
2023-05-15T05:11:22.531Z,6.47
2023-05-15T05:13:51.981Z,7.40
2023-05-15T05:16:20.457Z,6.63
2023-05-15T05:18:48.456Z,7.33
2023-05-15T05:21:16.391Z,7.83
2023-05-15T05:23:47.342Z,5.87
2023-05-15T05:26:15.457Z,6.33
2023-05-15T05:28:43.395Z,7.80
2023-05-15T05:31:11.468Z,7.37
2023-05-15T05:33:39.964Z,6.53
2023-05-15T05:36:08.450Z,6.97
2023-05-15T05:38:39.158Z,6.17
2023-05-15T05:41:08.591Z,7.13
2023-05-15T05:43:36.755Z,7.97
2023-05-15T05:46:04.849Z,6.40
2023-05-15T05:48:32.765Z,5.97
2023-05-15T05:51:00.838Z,6.53
2023-05-15T05:53:29.100Z,7.10
2023-05-15T05:55:57.252Z,7.00
2023-05-15T05:58:26.606Z,5.83
2023-05-15T06:00:54.688Z,6.47
2023-05-15T06:03:23.280Z,6.10
2023-05-15T06:05:52.886Z,6.40
2023-05-15T06:08:20.941Z,6.57
2023-05-15T06:10:49.082Z,6.07
2023-05-15T06:13:17.522Z,6.70
2023-05-15T06:15:47.338Z,6.97
2023-05-15T06:18:15.429Z,7.20
2023-05-15T06:20:43.504Z,6.37
2023-05-15T06:23:11.472Z,6.70
2023-05-15T06:25:39.551Z,7.10
2023-05-15T06:28:07.678Z,7.63
2023-05-15T06:30:35.695Z,7.60
2023-05-15T06:33:05.372Z,7.03
2023-05-15T06:35:33.315Z,6.77
2023-05-15T06:38:01.931Z,6.63
2023-05-15T06:40:30.114Z,7.03
2023-05-15T06:42:58.868Z,7.40
2023-05-15T06:45:27.440Z,6.70
2023-05-15T06:47:55.954Z,7.47
2023-05-15T06:50:26.046Z,7.13
2023-05-15T06:52:54.665Z,6.07
2023-05-15T06:55:22.764Z,5.87
2023-05-15T06:57:50.837Z,6.43
2023-05-15T07:00:19.513Z,6.90
2023-05-15T07:02:47.475Z,6.43
2023-05-15T07:05:15.561Z,6.07
2023-05-15T07:07:45.199Z,5.80
2023-05-15T07:10:13.438Z,5.20
2023-05-15T07:12:41.352Z,4.93
2023-05-15T07:15:10.064Z,5.50
2023-05-15T07:17:38.201Z,5.10
2023-05-15T07:20:07.398Z,5.20
2023-05-15T07:22:41.712Z,5.33
2023-05-15T07:25:17.795Z,4.70
2023-05-15T07:27:45.990Z,4.80
2023-05-15T07:30:14.719Z,4.03
2023-05-15T07:32:42.785Z,5.23
2023-05-15T07:35:12.488Z,4.13
2023-05-15T07:37:40.890Z,3.77
2023-05-15T07:40:10.652Z,4.43
2023-05-15T07:42:40.869Z,4.53
2023-05-15T07:45:09.777Z,4.00
2023-05-15T07:47:38.059Z,5.70
2023-05-15T07:50:06.787Z,4.37
2023-05-15T07:52:34.824Z,4.77
2023-05-15T07:55:02.948Z,3.90
2023-05-15T07:57:31.951Z,3.50
2023-05-15T08:00:06.634Z,3.90
2023-05-15T08:02:34.813Z,3.57
2023-05-15T08:05:02.859Z,4.00
2023-05-15T08:07:32.493Z,3.77
2023-05-15T08:10:00.791Z,4.13
2023-05-15T08:12:28.830Z,3.80
2023-05-15T08:14:57.860Z,3.40
2023-05-15T08:17:27.486Z,4.70
2023-05-15T08:19:56.297Z,3.37
2023-05-15T08:22:24.419Z,3.60
2023-05-15T08:24:52.292Z,3.77
2023-05-15T08:27:20.462Z,3.07
2023-05-15T08:29:48.422Z,3.47
2023-05-15T08:32:16.549Z,3.73
2023-05-15T08:34:45.851Z,3.90
2023-05-15T08:37:13.929Z,3.53
2023-05-15T08:39:41.922Z,3.67
2023-05-15T08:42:15.677Z,4.70
2023-05-15T08:44:44.468Z,4.27
2023-05-15T08:47:12.813Z,3.90
2023-05-15T08:49:50.848Z,4.00
2023-05-15T08:52:18.758Z,3.67
2023-05-15T08:54:48.536Z,3.00
2023-05-15T08:57:17.997Z,3.90
2023-05-15T08:59:47.186Z,3.40
2023-05-15T09:02:15.726Z,3.43
2023-05-15T09:04:43.672Z,4.10
2023-05-15T09:07:13.311Z,3.33
2023-05-15T09:09:41.995Z,3.50
2023-05-15T09:12:12.511Z,4.00
2023-05-15T09:14:40.467Z,3.60
2023-05-15T09:17:10.301Z,3.27
2023-05-15T09:19:40.437Z,3.33
2023-05-15T09:22:23.546Z,2.90
2023-05-15T09:24:53.459Z,3.47
2023-05-15T09:27:21.858Z,2.80
2023-05-15T09:29:51.331Z,2.93
2023-05-15T09:32:19.881Z,3.88
2023-05-15T09:34:48.061Z,2.87
2023-05-15T09:37:31.609Z,3.80
2023-05-15T09:40:10.904Z,2.90
2023-05-15T09:42:39.137Z,2.90
2023-05-15T09:45:17.852Z,3.30
2023-05-15T09:47:46.726Z,2.80
2023-05-15T09:50:21.322Z,2.43
2023-05-15T09:52:51.663Z,3.83
2023-05-15T09:55:20.989Z,3.20
2023-05-15T09:58:07.385Z,3.60
2023-05-15T10:00:36.061Z,2.80
2023-05-15T10:03:05.122Z,3.40
2023-05-15T10:05:43.026Z,3.20
2023-05-15T10:08:15.037Z,2.90
2023-05-15T10:10:43.670Z,3.20
2023-05-15T10:13:12.825Z,3.23
2023-05-15T10:15:41.180Z,3.27
2023-05-15T10:18:09.408Z,2.57
2023-05-15T10:20:38.826Z,2.83
2023-05-15T10:23:08.870Z,2.73
2023-05-15T10:25:43.382Z,2.90
2023-05-15T10:28:12.568Z,2.30
2023-05-15T10:30:40.570Z,3.17
2023-05-15T10:33:09.396Z,3.30
2023-05-15T10:35:39.092Z,3.00
2023-05-15T10:38:07.933Z,4.00
2023-05-15T10:40:40.757Z,3.20
2023-05-15T10:43:12.236Z,3.90
2023-05-15T10:45:40.645Z,3.30
2023-05-15T10:48:12.276Z,3.67
2023-05-15T10:50:40.528Z,3.60
2023-05-15T10:53:10.573Z,2.83
2023-05-15T10:55:39.972Z,3.20
2023-05-15T10:58:10.958Z,3.67
2023-05-15T11:00:43.853Z,3.50
2023-05-15T11:03:15.497Z,4.70
2023-05-15T11:06:08.620Z,4.40
2023-05-15T11:08:37.226Z,3.77
2023-05-15T11:11:06.627Z,3.93
2023-05-15T11:14:12.241Z,3.60
2023-05-15T11:16:59.822Z,3.93
2023-05-15T11:19:37.766Z,3.20
2023-05-15T11:22:18.796Z,3.00
2023-05-15T11:24:52.422Z,3.70
2023-05-15T11:27:23.551Z,2.93
2023-05-15T11:30:22.970Z,3.07
2023-05-15T11:32:55.512Z,2.70
2023-05-15T11:35:26.171Z,3.90
2023-05-15T11:37:55.224Z,4.10
2023-05-15T11:40:25.324Z,3.30
2023-05-15T11:43:18.810Z,3.70
2023-05-15T11:45:48.771Z,3.37
2023-05-15T11:48:18.059Z,3.40
2023-05-15T11:50:46.904Z,3.73
2023-05-15T11:53:15.385Z,3.43
2023-05-15T11:55:45.311Z,3.70
2023-05-15T11:58:16.561Z,3.50
2023-05-15T12:00:46.344Z,4.80
2023-05-15T12:03:19.170Z,3.50
2023-05-15T12:05:58.201Z,3.83
2023-05-15T12:08:32.432Z,4.00
2023-05-15T12:11:01.246Z,4.83
2023-05-15T12:13:32.033Z,4.20
2023-05-15T12:16:00.491Z,4.30
2023-05-15T12:18:28.520Z,4.03
2023-05-15T12:20:57.097Z,4.00
2023-05-15T12:23:26.974Z,4.10
2023-05-15T12:26:00.615Z,3.53
2023-05-15T12:28:30.428Z,3.40
2023-05-15T12:30:59.179Z,3.80
2023-05-15T12:33:27.247Z,3.90
2023-05-15T12:36:01.092Z,5.30
2023-05-15T12:38:30.445Z,4.40
2023-05-15T12:40:59.135Z,5.23
2023-05-15T12:43:27.600Z,5.10
2023-05-15T12:45:57.780Z,4.87
2023-05-15T12:48:30.908Z,3.77
2023-05-15T12:51:05.952Z,3.83
2023-05-15T12:53:34.417Z,3.10
2023-05-15T12:56:02.845Z,2.63
2023-05-15T12:58:31.220Z,3.20
2023-05-15T13:01:03.199Z,3.00
2023-05-15T13:03:31.971Z,3.17
2023-05-15T13:06:00.102Z,2.70
2023-05-15T13:08:28.063Z,5.97
2023-05-15T13:10:59.133Z,3.58
2023-05-15T13:13:42.616Z,3.33
2023-05-15T13:16:25.330Z,2.53
2023-05-15T13:18:53.740Z,3.07
2023-05-15T13:21:21.813Z,4.13
2023-05-15T13:23:50.028Z,3.30
2023-05-15T13:26:17.967Z,3.30
2023-05-15T13:28:45.882Z,3.17
2023-05-15T13:31:14.093Z,3.60
2023-05-15T13:33:43.522Z,3.35
2023-05-15T13:36:11.498Z,3.87
2023-05-15T13:38:39.554Z,3.20
2023-05-15T13:41:07.557Z,3.17
2023-05-15T13:43:35.583Z,2.80
2023-05-15T13:46:03.520Z,3.53
2023-05-15T13:48:31.804Z,3.43
2023-05-15T13:51:01.322Z,2.90
2023-05-15T13:53:29.388Z,2.60
2023-05-15T13:55:57.380Z,2.83
2023-05-15T13:58:26.637Z,2.40
2023-05-15T14:00:54.795Z,2.90
2023-05-15T14:03:22.875Z,2.70
2023-05-15T14:05:51.223Z,3.00
2023-05-15T14:08:21.242Z,3.00
2023-05-15T14:10:49.204Z,2.93
2023-05-15T14:13:17.212Z,2.70
2023-05-15T14:15:45.246Z,3.70
2023-05-15T14:18:13.202Z,3.30
2023-05-15T14:20:41.268Z,3.37
2023-05-15T14:23:09.211Z,3.10
2023-05-15T14:25:38.723Z,3.23
2023-05-15T14:28:06.770Z,3.23
2023-05-15T14:30:35.436Z,2.97
2023-05-15T14:33:03.470Z,2.93
2023-05-15T14:35:31.483Z,3.20
2023-05-15T14:37:59.558Z,3.20
2023-05-15T14:40:27.687Z,3.03
2023-05-15T14:42:57.174Z,2.93
2023-05-15T14:45:25.507Z,2.80
2023-05-15T14:47:53.678Z,2.73
2023-05-15T14:50:21.691Z,3.00
2023-05-15T14:52:49.715Z,3.00
2023-05-15T14:55:22.102Z,2.90
2023-05-15T14:57:50.701Z,2.85
2023-05-15T15:00:20.313Z,2.60
2023-05-15T15:02:48.415Z,2.37
2023-05-15T15:05:16.825Z,3.13
2023-05-15T15:08:02.674Z,2.43
2023-05-15T15:10:31.191Z,3.33
2023-05-15T15:12:59.561Z,3.20
2023-05-15T15:15:29.261Z,2.80
2023-05-15T15:17:58.208Z,3.37
2023-05-15T15:20:27.703Z,3.17
2023-05-15T15:22:56.363Z,3.30
2023-05-15T15:25:24.820Z,3.23
2023-05-15T15:27:52.820Z,3.20
2023-05-15T15:30:21.117Z,3.53
2023-05-15T15:32:50.691Z,3.03
2023-05-15T15:35:18.651Z,2.63
2023-05-15T15:37:46.670Z,3.63
2023-05-15T15:40:14.999Z,3.00
2023-05-15T15:42:43.098Z,3.10
2023-05-15T15:45:11.145Z,4.97
2023-05-15T15:47:39.127Z,3.13
2023-05-15T15:50:09.698Z,2.80
2023-05-15T15:52:37.657Z,2.73
2023-05-15T15:55:06.543Z,2.80
2023-05-15T15:57:35.184Z,4.17
2023-05-15T16:00:03.640Z,2.60
2023-05-15T16:02:31.599Z,2.97
2023-05-15T16:04:59.680Z,3.13
2023-05-15T16:07:29.199Z,2.90
2023-05-15T16:10:10.848Z,3.00
2023-05-15T16:12:42.253Z,3.50
2023-05-15T16:17:42.070Z,2.47
2023-05-15T16:20:10.602Z,2.20
2023-05-15T16:22:41.855Z,2.43
2023-05-15T16:25:10.186Z,1.83
2023-05-15T16:27:38.374Z,2.50
2023-05-15T16:30:07.134Z,2.53
2023-05-15T16:32:35.113Z,2.30
2023-05-15T16:35:03.084Z,2.30
2023-05-15T16:37:31.021Z,3.20
2023-05-15T16:40:00.733Z,2.53
2023-05-15T16:42:28.665Z,2.13
2023-05-15T16:44:56.705Z,1.87
2023-05-15T16:47:24.802Z,2.80
2023-05-15T16:49:52.762Z,2.73
2023-05-15T16:52:20.865Z,2.43
2023-05-15T16:54:48.825Z,2.40
2023-05-15T16:57:18.170Z,2.80
2023-05-15T16:59:46.368Z,5.07
2023-05-15T17:02:14.663Z,3.40
2023-05-15T17:04:42.688Z,3.00
2023-05-15T17:07:10.718Z,4.13
2023-05-15T17:09:40.116Z,2.67
2023-05-15T17:12:08.654Z,2.60
2023-05-15T17:14:37.952Z,2.57
2023-05-15T17:17:06.234Z,2.90
2023-05-15T17:19:34.865Z,2.47
2023-05-15T17:22:03.097Z,2.50
2023-05-15T17:24:46.340Z,2.80
2023-05-15T17:27:19.266Z,2.50
2023-05-15T17:29:48.902Z,7.10
2023-05-15T17:32:17.384Z,4.40
2023-05-15T17:34:46.145Z,2.70
2023-05-15T17:37:14.726Z,3.53
2023-05-15T17:39:42.795Z,4.30
2023-05-15T17:42:10.882Z,3.00
2023-05-15T17:44:39.286Z,3.17
2023-05-15T17:47:10.142Z,3.70
2023-05-15T17:49:38.852Z,5.70
2023-05-15T17:52:07.345Z,3.50
2023-05-15T17:54:35.425Z,5.90
2023-05-15T17:57:04.008Z,5.93
2023-05-15T17:59:32.018Z,4.30
2023-05-15T18:02:00.388Z,4.00
2023-05-15T18:04:29.809Z,5.27
2023-05-15T18:06:57.745Z,4.10
2023-05-15T18:09:25.893Z,5.37
2023-05-15T18:11:53.891Z,3.20
2023-05-15T18:14:22.002Z,3.43
2023-05-15T18:16:50.081Z,7.50
2023-05-15T18:19:18.219Z,3.50
2023-05-15T18:21:47.862Z,4.60
2023-05-15T18:24:15.836Z,3.73
2023-05-15T18:26:43.726Z,4.23
2023-05-15T18:29:12.040Z,4.63
2023-05-15T18:31:40.031Z,3.93
2023-05-15T18:34:08.173Z,6.00
2023-05-15T18:36:36.153Z,4.00
2023-05-15T18:39:05.601Z,3.80
2023-05-15T18:41:34.096Z,4.10
2023-05-15T18:44:02.031Z,5.70
2023-05-15T18:46:31.710Z,5.93
2023-05-15T18:48:59.878Z,5.07
2023-05-15T18:51:27.897Z,6.27
2023-05-15T18:53:55.755Z,6.40
2023-05-15T18:56:25.689Z,4.50
2023-05-15T18:58:55.396Z,4.93
2023-05-15T19:01:23.428Z,5.00
2023-05-15T19:03:51.582Z,4.60
2023-05-15T19:06:20.363Z,4.30
2023-05-15T19:08:49.243Z,6.00
2023-05-15T19:11:17.749Z,5.33
2023-05-15T19:13:47.373Z,6.27
2023-05-15T19:16:15.312Z,5.33
2023-05-15T19:18:43.369Z,4.17
2023-05-15T19:21:11.982Z,5.37
2023-05-15T19:23:40.021Z,5.50
2023-05-15T19:26:07.898Z,4.00
2023-05-15T19:28:36.291Z,4.77
2023-05-15T19:31:08.215Z,5.57
2023-05-15T19:33:39.963Z,4.70
2023-05-15T19:36:07.865Z,4.40
2023-05-15T19:38:35.960Z,4.23
2023-05-15T19:41:04.235Z,6.60
2023-05-15T19:43:35.823Z,5.47
2023-05-15T19:46:05.527Z,8.00
2023-05-15T19:48:33.585Z,8.50
2023-05-15T19:51:01.672Z,5.80
2023-05-15T19:53:29.672Z,5.60
2023-05-15T19:55:58.025Z,6.07
2023-05-15T19:58:26.167Z,5.20
2023-05-15T20:00:55.150Z,4.37
2023-05-15T20:03:25.878Z,4.60
2023-05-15T20:05:54.318Z,3.97
2023-05-15T20:08:22.207Z,4.10
2023-05-15T20:10:52.802Z,3.70
2023-05-15T20:13:20.942Z,3.43
2023-05-15T20:15:48.973Z,3.90
2023-05-15T20:18:17.401Z,3.80
2023-05-15T20:20:47.047Z,3.93
2023-05-15T20:23:15.086Z,3.90
2023-05-15T20:25:43.080Z,3.60
2023-05-15T20:28:11.221Z,3.53
2023-05-15T20:30:39.234Z,3.30
2023-05-15T20:33:07.355Z,3.37
2023-05-15T20:35:35.333Z,3.70
2023-05-15T20:38:04.772Z,2.83
2023-05-15T20:40:32.847Z,2.93
2023-05-15T20:43:01.463Z,3.10
2023-05-15T20:45:29.564Z,3.47
2023-05-15T20:47:57.620Z,3.30
2023-05-15T20:50:26.096Z,3.70
2023-05-15T20:52:54.646Z,4.27
2023-05-15T20:55:23.981Z,3.17
2023-05-15T20:57:52.001Z,3.63
2023-05-15T21:00:20.208Z,3.83
2023-05-15T21:02:48.256Z,3.37
2023-05-15T21:05:16.337Z,3.70
2023-05-15T21:07:44.433Z,3.73
2023-05-15T21:10:12.597Z,3.10
2023-05-15T21:12:42.171Z,3.93
2023-05-15T21:15:11.133Z,3.50
2023-05-15T21:17:39.678Z,3.80
2023-05-15T21:20:08.992Z,3.23
2023-05-15T21:22:37.311Z,3.60
2023-05-15T21:25:05.835Z,3.70
2023-05-15T21:27:33.748Z,2.90
2023-05-15T21:30:03.183Z,3.47
2023-05-15T21:32:31.075Z,3.50
2023-05-15T21:34:59.121Z,3.43
2023-05-15T21:37:27.372Z,3.10
2023-05-15T21:39:55.281Z,4.37
2023-05-15T21:42:23.754Z,3.50
2023-05-15T21:44:51.702Z,4.03
2023-05-15T21:47:21.035Z,3.17
2023-05-15T21:49:49.110Z,3.60
2023-05-15T21:52:17.035Z,3.60
2023-05-15T21:54:45.090Z,3.27
2023-05-15T21:57:13.061Z,3.40
2023-05-15T21:59:41.173Z,3.83
2023-05-15T22:02:09.204Z,3.00
2023-05-15T22:04:38.513Z,2.63
2023-05-15T22:07:06.785Z,3.50
2023-05-15T22:09:34.937Z,3.30
2023-05-15T22:12:03.128Z,2.60
2023-05-15T22:14:31.024Z,3.00
2023-05-15T22:16:59.045Z,3.27
2023-05-15T22:19:33.075Z,2.70
2023-05-15T22:22:04.447Z,2.70
2023-05-15T22:24:32.635Z,3.40
2023-05-15T22:27:00.770Z,3.00
2023-05-15T22:29:28.694Z,3.00
2023-05-15T22:31:57.635Z,3.00
2023-05-15T22:34:28.816Z,3.37
2023-05-15T22:36:56.772Z,2.30
2023-05-15T22:39:26.207Z,3.10
2023-05-15T22:41:54.136Z,2.80
2023-05-15T22:44:22.446Z,2.90
2023-05-15T22:46:50.635Z,2.60
2023-05-15T22:49:23.493Z,2.50
2023-05-15T22:51:51.732Z,2.87
2023-05-15T22:54:21.629Z,3.13
2023-05-15T22:56:53.468Z,3.37
2023-05-15T22:59:21.889Z,2.33
2023-05-15T23:01:50.346Z,2.70
2023-05-15T23:04:18.912Z,3.23
2023-05-15T23:06:47.146Z,3.00
2023-05-15T23:09:15.031Z,2.93
2023-05-15T23:11:43.252Z,3.37
2023-05-15T23:14:13.973Z,3.10
2023-05-15T23:16:42.038Z,3.10
2023-05-15T23:19:09.986Z,3.00
2023-05-15T23:21:38.028Z,3.40
2023-05-15T23:24:06.528Z,3.20
2023-05-15T23:26:34.651Z,3.33
2023-05-15T23:29:02.747Z,3.30
2023-05-15T23:31:33.009Z,3.23
2023-05-15T23:34:00.961Z,3.57
2023-05-15T23:36:28.928Z,2.73
2023-05-15T23:38:56.902Z,3.47
2023-05-15T23:41:26.249Z,3.40
2023-05-15T23:43:54.680Z,3.13
2023-05-15T23:46:22.673Z,3.03
2023-05-15T23:48:51.983Z,2.70
2023-05-15T23:51:20.463Z,2.93
2023-05-15T23:53:48.346Z,3.77
2023-05-15T23:56:16.433Z,4.07
2023-05-15T23:58:44.460Z,3.43
